sensor_id;sensor_type;location;lat;lon;timestamp;P1;durP1;ratioP1;P2;durP2;ratioP2
13481;SDS011;6813;60.352;15.746;2023-03-20T00:01:14;2.93;;;2.73;;
13481;SDS011;6813;60.352;15.746;2023-03-20T00:03:41;2.30;;;2.10;;
13481;SDS011;6813;60.352;15.746;2023-03-20T00:06:11;2.60;;;2.40;;
13481;SDS011;6813;60.352;15.746;2023-03-20T00:08:45;2.80;;;2.40;;
13481;SDS011;6813;60.352;15.746;2023-03-20T00:14:03;2.77;;;2.47;;
13481;SDS011;6813;60.352;15.746;2023-03-20T00:16:32;3.93;;;2.43;;
13481;SDS011;6813;60.352;15.746;2023-03-20T00:19:03;2.60;;;2.40;;
13481;SDS011;6813;60.352;15.746;2023-03-20T00:21:30;2.80;;;2.50;;
13481;SDS011;6813;60.352;15.746;2023-03-20T00:23:56;2.70;;;2.40;;
13481;SDS011;6813;60.352;15.746;2023-03-20T00:26:26;1.50;;;1.40;;
13481;SDS011;6813;60.352;15.746;2023-03-20T00:28:56;2.20;;;2.00;;
13481;SDS011;6813;60.352;15.746;2023-03-20T00:33:49;2.53;;;2.33;;
13481;SDS011;6813;60.352;15.746;2023-03-20T00:36:16;2.73;;;2.53;;
13481;SDS011;6813;60.352;15.746;2023-03-20T00:38:41;2.50;;;2.30;;
13481;SDS011;6813;60.352;15.746;2023-03-20T00:41:50;2.60;;;2.40;;
13481;SDS011;6813;60.352;15.746;2023-03-20T00:44:02;2.83;;;2.57;;
13481;SDS011;6813;60.352;15.746;2023-03-20T00:46:49;4.00;;;3.00;;
13481;SDS011;6813;60.352;15.746;2023-03-20T00:49:18;1.87;;;1.60;;
13481;SDS011;6813;60.352;15.746;2023-03-20T00:51:51;1.83;;;1.73;;
13481;SDS011;6813;60.352;15.746;2023-03-20T00:54:18;2.27;;;2.07;;
13481;SDS011;6813;60.352;15.746;2023-03-20T00:59:13;2.27;;;2.07;;
13481;SDS011;6813;60.352;15.746;2023-03-20T01:01:42;2.70;;;2.50;;
13481;SDS011;6813;60.352;15.746;2023-03-20T01:04:12;3.03;;;2.27;;
13481;SDS011;6813;60.352;15.746;2023-03-20T01:06:42;2.70;;;2.43;;
13481;SDS011;6813;60.352;15.746;2023-03-20T01:09:08;3.53;;;2.80;;
13481;SDS011;6813;60.352;15.746;2023-03-20T01:11:35;2.93;;;2.50;;
13481;SDS011;6813;60.352;15.746;2023-03-20T01:14:02;2.60;;;2.40;;
13481;SDS011;6813;60.352;15.746;2023-03-20T01:16:28;2.83;;;2.53;;
13481;SDS011;6813;60.352;15.746;2023-03-20T01:18:54;2.40;;;2.00;;
13481;SDS011;6813;60.352;15.746;2023-03-20T01:21:20;2.00;;;1.80;;
13481;SDS011;6813;60.352;15.746;2023-03-20T01:23:49;2.33;;;2.13;;
13481;SDS011;6813;60.352;15.746;2023-03-20T01:26:23;2.90;;;2.40;;
13481;SDS011;6813;60.352;15.746;2023-03-20T01:28:56;3.03;;;2.73;;
13481;SDS011;6813;60.352;15.746;2023-03-20T01:31:22;3.00;;;2.33;;
13481;SDS011;6813;60.352;15.746;2023-03-20T01:33:47;3.97;;;2.43;;
13481;SDS011;6813;60.352;15.746;2023-03-20T01:36:14;2.63;;;2.37;;
13481;SDS011;6813;60.352;15.746;2023-03-20T01:38:42;3.17;;;2.70;;
13481;SDS011;6813;60.352;15.746;2023-03-20T01:41:15;2.80;;;2.40;;
13481;SDS011;6813;60.352;15.746;2023-03-20T01:43:42;2.90;;;2.50;;
13481;SDS011;6813;60.352;15.746;2023-03-20T01:46:29;3.03;;;2.73;;
13481;SDS011;6813;60.352;15.746;2023-03-20T01:49:00;2.77;;;2.57;;
13481;SDS011;6813;60.352;15.746;2023-03-20T01:51:32;2.40;;;2.20;;
13481;SDS011;6813;60.352;15.746;2023-03-20T01:56:45;2.97;;;2.40;;
13481;SDS011;6813;60.352;15.746;2023-03-20T01:59:42;3.37;;;2.53;;
13481;SDS011;6813;60.352;15.746;2023-03-20T02:02:09;2.33;;;2.10;;
13481;SDS011;6813;60.352;15.746;2023-03-20T02:04:41;2.60;;;2.40;;
13481;SDS011;6813;60.352;15.746;2023-03-20T02:07:10;2.23;;;2.03;;
13481;SDS011;6813;60.352;15.746;2023-03-20T02:09:40;3.17;;;2.27;;
13481;SDS011;6813;60.352;15.746;2023-03-20T02:12:06;2.27;;;2.07;;
13481;SDS011;6813;60.352;15.746;2023-03-20T02:14:32;2.67;;;2.30;;
13481;SDS011;6813;60.352;15.746;2023-03-20T02:17:00;2.60;;;2.40;;
13481;SDS011;6813;60.352;15.746;2023-03-20T02:19:32;3.40;;;2.70;;
13481;SDS011;6813;60.352;15.746;2023-03-20T02:30:47;3.20;;;2.40;;
13481;SDS011;6813;60.352;15.746;2023-03-20T02:57:42;2.60;;;2.10;;
13481;SDS011;6813;60.352;15.746;2023-03-20T03:00:18;2.10;;;1.90;;
13481;SDS011;6813;60.352;15.746;2023-03-20T03:02:52;2.13;;;1.93;;
13481;SDS011;6813;60.352;15.746;2023-03-20T03:05:36;1.70;;;1.60;;
13481;SDS011;6813;60.352;15.746;2023-03-20T03:08:07;1.87;;;1.77;;
13481;SDS011;6813;60.352;15.746;2023-03-20T03:10:39;2.40;;;1.90;;
13481;SDS011;6813;60.352;15.746;2023-03-20T03:13:14;2.63;;;1.70;;
13481;SDS011;6813;60.352;15.746;2023-03-20T03:15:45;2.00;;;1.40;;
13481;SDS011;6813;60.352;15.746;2023-03-20T03:18:20;2.70;;;1.90;;
13481;SDS011;6813;60.352;15.746;2023-03-20T03:20:51;2.10;;;1.77;;
13481;SDS011;6813;60.352;15.746;2023-03-20T03:25:56;1.87;;;1.70;;
13481;SDS011;6813;60.352;15.746;2023-03-20T03:30:53;2.70;;;1.70;;
13481;SDS011;6813;60.352;15.746;2023-03-20T03:33:21;2.07;;;1.70;;
13481;SDS011;6813;60.352;15.746;2023-03-20T03:35:52;1.90;;;1.53;;
13481;SDS011;6813;60.352;15.746;2023-03-20T03:41:21;3.20;;;2.60;;
13481;SDS011;6813;60.352;15.746;2023-03-20T03:46:41;2.23;;;1.73;;
13481;SDS011;6813;60.352;15.746;2023-03-20T03:49:15;2.03;;;1.70;;
13481;SDS011;6813;60.352;15.746;2023-03-20T03:51:48;1.67;;;1.53;;
13481;SDS011;6813;60.352;15.746;2023-03-20T03:54:20;2.53;;;1.90;;
13481;SDS011;6813;60.352;15.746;2023-03-20T03:56:49;3.50;;;2.57;;
13481;SDS011;6813;60.352;15.746;2023-03-20T03:59:19;2.30;;;1.70;;
13481;SDS011;6813;60.352;15.746;2023-03-20T04:01:51;3.20;;;2.10;;
13481;SDS011;6813;60.352;15.746;2023-03-20T04:04:20;4.03;;;2.33;;
13481;SDS011;6813;60.352;15.746;2023-03-20T04:06:48;6.33;;;4.47;;
13481;SDS011;6813;60.352;15.746;2023-03-20T04:09:14;2.90;;;2.60;;
13481;SDS011;6813;60.352;15.746;2023-03-20T04:11:40;3.03;;;2.40;;
13481;SDS011;6813;60.352;15.746;2023-03-20T04:14:06;2.10;;;1.83;;
13481;SDS011;6813;60.352;15.746;2023-03-20T04:16:31;3.20;;;2.40;;
13481;SDS011;6813;60.352;15.746;2023-03-20T04:18:57;1.77;;;1.40;;
13481;SDS011;6813;60.352;15.746;2023-03-20T04:21:23;1.53;;;1.43;;
13481;SDS011;6813;60.352;15.746;2023-03-20T04:23:49;1.50;;;1.40;;
13481;SDS011;6813;60.352;15.746;2023-03-20T04:26:15;1.73;;;1.50;;
13481;SDS011;6813;60.352;15.746;2023-03-20T04:28:40;1.53;;;1.43;;
13481;SDS011;6813;60.352;15.746;2023-03-20T04:31:06;1.83;;;1.40;;
13481;SDS011;6813;60.352;15.746;2023-03-20T04:33:32;4.87;;;4.37;;
13481;SDS011;6813;60.352;15.746;2023-03-20T04:35:57;1.60;;;1.50;;
13481;SDS011;6813;60.352;15.746;2023-03-20T04:38:23;1.50;;;1.40;;
13481;SDS011;6813;60.352;15.746;2023-03-20T04:40:49;1.57;;;1.43;;
13481;SDS011;6813;60.352;15.746;2023-03-20T04:43:15;2.20;;;1.70;;
13481;SDS011;6813;60.352;15.746;2023-03-20T04:45:41;1.40;;;1.30;;
13481;SDS011;6813;60.352;15.746;2023-03-20T04:48:06;2.00;;;1.77;;
13481;SDS011;6813;60.352;15.746;2023-03-20T04:50:32;2.40;;;1.97;;
13481;SDS011;6813;60.352;15.746;2023-03-20T04:52:58;1.53;;;1.43;;
13481;SDS011;6813;60.352;15.746;2023-03-20T04:55:24;1.47;;;1.37;;
13481;SDS011;6813;60.352;15.746;2023-03-20T04:57:50;1.80;;;1.60;;
13481;SDS011;6813;60.352;15.746;2023-03-20T05:00:16;1.53;;;1.43;;
13481;SDS011;6813;60.352;15.746;2023-03-20T05:02:42;1.97;;;1.77;;
13481;SDS011;6813;60.352;15.746;2023-03-20T05:05:08;3.30;;;3.00;;
13481;SDS011;6813;60.352;15.746;2023-03-20T05:07:35;1.70;;;1.60;;
13481;SDS011;6813;60.352;15.746;2023-03-20T05:10:01;2.90;;;1.77;;
13481;SDS011;6813;60.352;15.746;2023-03-20T05:12:29;1.70;;;1.50;;
13481;SDS011;6813;60.352;15.746;2023-03-20T05:15:01;1.80;;;1.53;;
13481;SDS011;6813;60.352;15.746;2023-03-20T05:17:26;2.00;;;1.80;;
13481;SDS011;6813;60.352;15.746;2023-03-20T05:19:55;2.30;;;2.10;;
13481;SDS011;6813;60.352;15.746;2023-03-20T05:22:21;1.63;;;1.53;;
13481;SDS011;6813;60.352;15.746;2023-03-20T05:24:47;1.83;;;1.60;;
13481;SDS011;6813;60.352;15.746;2023-03-20T05:27:12;1.60;;;1.50;;
13481;SDS011;6813;60.352;15.746;2023-03-20T05:29:38;1.90;;;1.70;;
13481;SDS011;6813;60.352;15.746;2023-03-20T05:32:04;1.83;;;1.73;;
13481;SDS011;6813;60.352;15.746;2023-03-20T05:34:30;1.70;;;1.60;;
13481;SDS011;6813;60.352;15.746;2023-03-20T05:36:55;1.90;;;1.70;;
13481;SDS011;6813;60.352;15.746;2023-03-20T05:39:21;1.80;;;1.70;;
13481;SDS011;6813;60.352;15.746;2023-03-20T05:41:47;1.63;;;1.53;;
13481;SDS011;6813;60.352;15.746;2023-03-20T05:44:13;1.93;;;1.73;;
13481;SDS011;6813;60.352;15.746;2023-03-20T05:46:38;1.53;;;1.43;;
13481;SDS011;6813;60.352;15.746;2023-03-20T05:49:04;1.70;;;1.43;;
13481;SDS011;6813;60.352;15.746;2023-03-20T05:51:30;1.70;;;1.60;;
13481;SDS011;6813;60.352;15.746;2023-03-20T05:53:56;2.33;;;1.80;;
13481;SDS011;6813;60.352;15.746;2023-03-20T05:56:21;1.40;;;1.30;;
13481;SDS011;6813;60.352;15.746;2023-03-20T05:58:47;1.67;;;1.37;;
13481;SDS011;6813;60.352;15.746;2023-03-20T06:01:13;1.57;;;1.47;;
13481;SDS011;6813;60.352;15.746;2023-03-20T06:03:42;1.63;;;1.53;;
13481;SDS011;6813;60.352;15.746;2023-03-20T06:06:08;1.37;;;1.27;;
13481;SDS011;6813;60.352;15.746;2023-03-20T06:08:34;2.73;;;1.33;;
13481;SDS011;6813;60.352;15.746;2023-03-20T06:11:00;1.67;;;1.30;;
13481;SDS011;6813;60.352;15.746;2023-03-20T06:13:28;1.57;;;1.47;;
13481;SDS011;6813;60.352;15.746;2023-03-20T06:15:53;1.77;;;1.50;;
13481;SDS011;6813;60.352;15.746;2023-03-20T06:18:19;1.50;;;1.40;;
13481;SDS011;6813;60.352;15.746;2023-03-20T06:20:45;1.97;;;1.87;;
13481;SDS011;6813;60.352;15.746;2023-03-20T06:23:11;3.40;;;3.10;;
13481;SDS011;6813;60.352;15.746;2023-03-20T06:25:37;2.77;;;2.57;;
13481;SDS011;6813;60.352;15.746;2023-03-20T06:28:03;2.47;;;2.27;;
13481;SDS011;6813;60.352;15.746;2023-03-20T06:30:29;1.67;;;1.57;;
13481;SDS011;6813;60.352;15.746;2023-03-20T06:32:54;1.80;;;1.70;;
13481;SDS011;6813;60.352;15.746;2023-03-20T06:35:20;1.43;;;1.33;;
13481;SDS011;6813;60.352;15.746;2023-03-20T06:37:46;1.83;;;1.50;;
13481;SDS011;6813;60.352;15.746;2023-03-20T06:40:12;2.53;;;2.33;;
13481;SDS011;6813;60.352;15.746;2023-03-20T06:42:38;1.53;;;1.43;;
13481;SDS011;6813;60.352;15.746;2023-03-20T06:45:04;1.13;;;1.10;;
13481;SDS011;6813;60.352;15.746;2023-03-20T06:47:30;1.50;;;1.40;;
13481;SDS011;6813;60.352;15.746;2023-03-20T06:49:56;1.40;;;1.30;;
13481;SDS011;6813;60.352;15.746;2023-03-20T06:52:21;1.20;;;1.10;;
13481;SDS011;6813;60.352;15.746;2023-03-20T06:54:48;1.33;;;1.13;;
13481;SDS011;6813;60.352;15.746;2023-03-20T06:57:15;1.33;;;1.23;;
13481;SDS011;6813;60.352;15.746;2023-03-20T06:59:41;1.90;;;1.40;;
13481;SDS011;6813;60.352;15.746;2023-03-20T07:02:08;2.43;;;2.10;;
13481;SDS011;6813;60.352;15.746;2023-03-20T07:04:34;1.20;;;1.00;;
13481;SDS011;6813;60.352;15.746;2023-03-20T07:07:01;1.47;;;1.30;;
13481;SDS011;6813;60.352;15.746;2023-03-20T07:09:27;1.60;;;1.50;;
13481;SDS011;6813;60.352;15.746;2023-03-20T07:11:53;1.20;;;1.10;;
13481;SDS011;6813;60.352;15.746;2023-03-20T07:14:18;1.80;;;1.60;;
13481;SDS011;6813;60.352;15.746;2023-03-20T07:16:44;1.20;;;1.07;;
13481;SDS011;6813;60.352;15.746;2023-03-20T07:19:11;1.70;;;1.60;;
13481;SDS011;6813;60.352;15.746;2023-03-20T07:21:37;1.30;;;1.20;;
13481;SDS011;6813;60.352;15.746;2023-03-20T07:24:03;1.23;;;1.07;;
13481;SDS011;6813;60.352;15.746;2023-03-20T07:26:30;1.37;;;1.27;;
13481;SDS011;6813;60.352;15.746;2023-03-20T07:28:56;1.00;;;0.90;;
13481;SDS011;6813;60.352;15.746;2023-03-20T07:31:23;1.23;;;1.13;;
13481;SDS011;6813;60.352;15.746;2023-03-20T07:33:50;1.40;;;1.30;;
13481;SDS011;6813;60.352;15.746;2023-03-20T07:36:16;1.40;;;1.30;;
13481;SDS011;6813;60.352;15.746;2023-03-20T07:38:42;1.30;;;1.20;;
13481;SDS011;6813;60.352;15.746;2023-03-20T07:41:08;1.03;;;1.03;;
13481;SDS011;6813;60.352;15.746;2023-03-20T07:43:34;1.43;;;1.33;;
13481;SDS011;6813;60.352;15.746;2023-03-20T07:46:04;0.73;;;0.73;;
13481;SDS011;6813;60.352;15.746;2023-03-20T07:48:31;0.77;;;0.77;;
13481;SDS011;6813;60.352;15.746;2023-03-20T07:50:57;1.17;;;1.07;;
13481;SDS011;6813;60.352;15.746;2023-03-20T07:53:23;1.00;;;1.00;;
13481;SDS011;6813;60.352;15.746;2023-03-20T07:55:49;1.00;;;1.00;;
13481;SDS011;6813;60.352;15.746;2023-03-20T07:58:14;1.50;;;1.40;;
13481;SDS011;6813;60.352;15.746;2023-03-20T08:00:40;2.23;;;1.50;;
13481;SDS011;6813;60.352;15.746;2023-03-20T08:03:06;0.80;;;0.70;;
13481;SDS011;6813;60.352;15.746;2023-03-20T08:05:33;1.90;;;1.03;;
13481;SDS011;6813;60.352;15.746;2023-03-20T08:07:59;2.00;;;1.60;;
13481;SDS011;6813;60.352;15.746;2023-03-20T08:10:24;2.00;;;1.70;;
13481;SDS011;6813;60.352;15.746;2023-03-20T08:12:50;1.13;;;1.10;;
13481;SDS011;6813;60.352;15.746;2023-03-20T08:15:16;1.10;;;1.00;;
13481;SDS011;6813;60.352;15.746;2023-03-20T08:17:42;1.20;;;1.10;;
13481;SDS011;6813;60.352;15.746;2023-03-20T08:20:09;0.70;;;0.70;;
13481;SDS011;6813;60.352;15.746;2023-03-20T08:22:36;3.20;;;0.70;;
13481;SDS011;6813;60.352;15.746;2023-03-20T08:25:02;0.50;;;0.50;;
13481;SDS011;6813;60.352;15.746;2023-03-20T08:27:27;0.40;;;0.40;;
13481;SDS011;6813;60.352;15.746;2023-03-20T08:29:53;0.93;;;0.50;;
13481;SDS011;6813;60.352;15.746;2023-03-20T08:32:19;0.30;;;0.30;;
13481;SDS011;6813;60.352;15.746;2023-03-20T08:34:44;0.30;;;0.30;;
13481;SDS011;6813;60.352;15.746;2023-03-20T08:37:10;0.40;;;0.40;;
13481;SDS011;6813;60.352;15.746;2023-03-20T08:39:37;0.20;;;0.20;;
13481;SDS011;6813;60.352;15.746;2023-03-20T08:42:04;0.30;;;0.30;;
13481;SDS011;6813;60.352;15.746;2023-03-20T08:44:30;1.20;;;0.60;;
13481;SDS011;6813;60.352;15.746;2023-03-20T08:46:56;0.60;;;0.50;;
13481;SDS011;6813;60.352;15.746;2023-03-20T08:49:22;0.57;;;0.50;;
13481;SDS011;6813;60.352;15.746;2023-03-20T08:51:48;0.30;;;0.30;;
13481;SDS011;6813;60.352;15.746;2023-03-20T08:54:13;1.20;;;0.20;;
13481;SDS011;6813;60.352;15.746;2023-03-20T08:56:42;0.10;;;0.10;;
13481;SDS011;6813;60.352;15.746;2023-03-20T08:59:08;0.03;;;0.00;;
13481;SDS011;6813;60.352;15.746;2023-03-20T09:01:34;0.93;;;0.17;;
13481;SDS011;6813;60.352;15.746;2023-03-20T09:04:00;0.30;;;0.23;;
13481;SDS011;6813;60.352;15.746;2023-03-20T09:06:26;0.30;;;0.30;;
13481;SDS011;6813;60.352;15.746;2023-03-20T09:08:53;0.60;;;0.60;;
13481;SDS011;6813;60.352;15.746;2023-03-20T09:11:19;1.40;;;1.00;;
13481;SDS011;6813;60.352;15.746;2023-03-20T09:13:45;2.17;;;1.23;;
13481;SDS011;6813;60.352;15.746;2023-03-20T09:16:10;0.43;;;0.40;;
13481;SDS011;6813;60.352;15.746;2023-03-20T09:18:36;0.10;;;0.10;;
13481;SDS011;6813;60.352;15.746;2023-03-20T09:21:02;0.20;;;0.20;;
13481;SDS011;6813;60.352;15.746;2023-03-20T09:23:28;0.10;;;0.10;;
13481;SDS011;6813;60.352;15.746;2023-03-20T09:25:54;0.93;;;0.40;;
13481;SDS011;6813;60.352;15.746;2023-03-20T09:28:20;0.60;;;0.23;;
13481;SDS011;6813;60.352;15.746;2023-03-20T09:30:45;0.37;;;0.37;;
13481;SDS011;6813;60.352;15.746;2023-03-20T09:33:11;1.47;;;0.60;;
13481;SDS011;6813;60.352;15.746;2023-03-20T09:35:38;1.20;;;0.60;;
13481;SDS011;6813;60.352;15.746;2023-03-20T09:38:04;0.40;;;0.20;;
13481;SDS011;6813;60.352;15.746;2023-03-20T09:40:49;0.57;;;0.57;;
13481;SDS011;6813;60.352;15.746;2023-03-20T09:49:16;0.57;;;0.40;;
13481;SDS011;6813;60.352;15.746;2023-03-20T09:51:55;0.10;;;0.10;;
13481;SDS011;6813;60.352;15.746;2023-03-20T09:57:05;0.30;;;0.20;;
13481;SDS011;6813;60.352;15.746;2023-03-20T09:59:39;0.00;;;0.00;;
13481;SDS011;6813;60.352;15.746;2023-03-20T10:02:06;0.00;;;0.00;;
13481;SDS011;6813;60.352;15.746;2023-03-20T10:04:41;0.73;;;0.20;;
13481;SDS011;6813;60.352;15.746;2023-03-20T10:07:08;1.27;;;0.10;;
13481;SDS011;6813;60.352;15.746;2023-03-20T10:09:38;0.67;;;0.67;;
13481;SDS011;6813;60.352;15.746;2023-03-20T10:12:17;0.30;;;0.30;;
13481;SDS011;6813;60.352;15.746;2023-03-20T10:17:54;0.10;;;0.10;;
13481;SDS011;6813;60.352;15.746;2023-03-20T10:25:50;0.13;;;0.10;;
13481;SDS011;6813;60.352;15.746;2023-03-20T10:31:56;0.13;;;0.07;;
13481;SDS011;6813;60.352;15.746;2023-03-20T10:34:56;0.10;;;0.10;;
13481;SDS011;6813;60.352;15.746;2023-03-20T10:42:30;0.37;;;0.20;;
13481;SDS011;6813;60.352;15.746;2023-03-20T10:45:03;0.10;;;0.10;;
13481;SDS011;6813;60.352;15.746;2023-03-20T10:47:37;0.20;;;0.20;;
13481;SDS011;6813;60.352;15.746;2023-03-20T10:50:18;0.20;;;0.20;;
13481;SDS011;6813;60.352;15.746;2023-03-20T10:52:51;0.57;;;0.20;;
13481;SDS011;6813;60.352;15.746;2023-03-20T10:55:21;0.20;;;0.20;;
13481;SDS011;6813;60.352;15.746;2023-03-20T10:57:57;0.10;;;0.10;;
13481;SDS011;6813;60.352;15.746;2023-03-20T11:00:27;0.10;;;0.10;;
13481;SDS011;6813;60.352;15.746;2023-03-20T11:02:53;0.10;;;0.10;;
13481;SDS011;6813;60.352;15.746;2023-03-20T11:05:23;1.13;;;0.20;;
13481;SDS011;6813;60.352;15.746;2023-03-20T11:07:51;0.47;;;0.23;;
13481;SDS011;6813;60.352;15.746;2023-03-20T11:10:33;0.30;;;0.30;;
13481;SDS011;6813;60.352;15.746;2023-03-20T11:13:12;0.50;;;0.30;;
13481;SDS011;6813;60.352;15.746;2023-03-20T11:15:40;0.30;;;0.30;;
13481;SDS011;6813;60.352;15.746;2023-03-20T11:18:09;0.27;;;0.20;;
13481;SDS011;6813;60.352;15.746;2023-03-20T11:20:53;0.33;;;0.30;;
13481;SDS011;6813;60.352;15.746;2023-03-20T11:23:39;0.30;;;0.30;;
13481;SDS011;6813;60.352;15.746;2023-03-20T11:26:06;0.30;;;0.30;;
13481;SDS011;6813;60.352;15.746;2023-03-20T11:28:46;0.20;;;0.20;;
13481;SDS011;6813;60.352;15.746;2023-03-20T11:31:23;0.10;;;0.10;;
13481;SDS011;6813;60.352;15.746;2023-03-20T11:36:31;0.20;;;0.20;;
13481;SDS011;6813;60.352;15.746;2023-03-20T11:41:34;0.23;;;0.23;;
13481;SDS011;6813;60.352;15.746;2023-03-20T11:46:58;0.43;;;0.20;;
13481;SDS011;6813;60.352;15.746;2023-03-20T11:49:29;0.27;;;0.20;;
13481;SDS011;6813;60.352;15.746;2023-03-20T11:51:59;0.13;;;0.13;;
13481;SDS011;6813;60.352;15.746;2023-03-20T11:54:37;0.20;;;0.20;;
13481;SDS011;6813;60.352;15.746;2023-03-20T11:57:23;0.20;;;0.10;;
13481;SDS011;6813;60.352;15.746;2023-03-20T11:59:56;0.27;;;0.27;;
13481;SDS011;6813;60.352;15.746;2023-03-20T12:02:22;1.20;;;0.20;;
13481;SDS011;6813;60.352;15.746;2023-03-20T12:04:49;0.10;;;0.10;;
13481;SDS011;6813;60.352;15.746;2023-03-20T12:09:53;0.10;;;0.10;;
13481;SDS011;6813;60.352;15.746;2023-03-20T12:20:44;0.10;;;0.10;;
13481;SDS011;6813;60.352;15.746;2023-03-20T12:23:20;2.57;;;2.37;;
13481;SDS011;6813;60.352;15.746;2023-03-20T12:26:05;0.60;;;0.23;;
13481;SDS011;6813;60.352;15.746;2023-03-20T12:28:37;0.23;;;0.23;;
13481;SDS011;6813;60.352;15.746;2023-03-20T12:33:56;0.63;;;0.40;;
13481;SDS011;6813;60.352;15.746;2023-03-20T12:36:37;0.30;;;0.30;;
13481;SDS011;6813;60.352;15.746;2023-03-20T12:39:09;0.10;;;0.10;;
13481;SDS011;6813;60.352;15.746;2023-03-20T12:44:29;0.30;;;0.20;;
13481;SDS011;6813;60.352;15.746;2023-03-20T12:47:07;0.20;;;0.20;;
13481;SDS011;6813;60.352;15.746;2023-03-20T13:01:28;0.20;;;0.20;;
13481;SDS011;6813;60.352;15.746;2023-03-20T13:11:24;0.10;;;0.10;;
13481;SDS011;6813;60.352;15.746;2023-03-20T13:19:45;0.73;;;0.10;;
13481;SDS011;6813;60.352;15.746;2023-03-20T13:28:10;0.10;;;0.10;;
13481;SDS011;6813;60.352;15.746;2023-03-20T13:34:09;0.27;;;0.20;;
13481;SDS011;6813;60.352;15.746;2023-03-20T13:39:47;0.20;;;0.20;;
13481;SDS011;6813;60.352;15.746;2023-03-20T13:42:25;0.63;;;0.27;;
13481;SDS011;6813;60.352;15.746;2023-03-20T13:44:58;0.20;;;0.20;;
13481;SDS011;6813;60.352;15.746;2023-03-20T13:47:31;0.13;;;0.13;;
13481;SDS011;6813;60.352;15.746;2023-03-20T13:50:11;1.97;;;1.20;;
13481;SDS011;6813;60.352;15.746;2023-03-20T13:52:56;0.17;;;0.17;;
13481;SDS011;6813;60.352;15.746;2023-03-20T13:56:02;0.60;;;0.40;;
13481;SDS011;6813;60.352;15.746;2023-03-20T13:58:48;0.37;;;0.37;;
13481;SDS011;6813;60.352;15.746;2023-03-20T14:01:32;0.30;;;0.30;;
13481;SDS011;6813;60.352;15.746;2023-03-20T14:04:20;0.23;;;0.23;;
13481;SDS011;6813;60.352;15.746;2023-03-20T14:06:52;0.30;;;0.30;;
13481;SDS011;6813;60.352;15.746;2023-03-20T14:11:56;13.87;;;9.00;;
13481;SDS011;6813;60.352;15.746;2023-03-20T14:14:54;0.97;;;0.60;;
13481;SDS011;6813;60.352;15.746;2023-03-20T14:17:30;0.20;;;0.20;;
13481;SDS011;6813;60.352;15.746;2023-03-20T14:20:08;0.50;;;0.47;;
13481;SDS011;6813;60.352;15.746;2023-03-20T14:22:40;1.23;;;0.33;;
13481;SDS011;6813;60.352;15.746;2023-03-20T14:25:07;0.63;;;0.30;;
13481;SDS011;6813;60.352;15.746;2023-03-20T14:27:52;0.20;;;0.20;;
13481;SDS011;6813;60.352;15.746;2023-03-20T14:33:00;1.80;;;1.50;;
13481;SDS011;6813;60.352;15.746;2023-03-20T14:35:47;0.30;;;0.30;;
13481;SDS011;6813;60.352;15.746;2023-03-20T14:38:30;0.10;;;0.10;;
13481;SDS011;6813;60.352;15.746;2023-03-20T14:41:16;0.30;;;0.30;;
13481;SDS011;6813;60.352;15.746;2023-03-20T14:55:12;3.80;;;2.37;;
13481;SDS011;6813;60.352;15.746;2023-03-20T14:57:41;0.80;;;0.80;;
13481;SDS011;6813;60.352;15.746;2023-03-20T15:00:24;1.23;;;0.80;;
13481;SDS011;6813;60.352;15.746;2023-03-20T15:03:06;5.40;;;2.67;;
13481;SDS011;6813;60.352;15.746;2023-03-20T15:05:38;1.47;;;0.50;;
13481;SDS011;6813;60.352;15.746;2023-03-20T15:08:08;2.13;;;1.70;;
13481;SDS011;6813;60.352;15.746;2023-03-20T15:13:35;0.60;;;0.60;;
13481;SDS011;6813;60.352;15.746;2023-03-20T15:16:05;0.60;;;0.60;;
13481;SDS011;6813;60.352;15.746;2023-03-20T15:18:39;0.63;;;0.50;;
13481;SDS011;6813;60.352;15.746;2023-03-20T15:21:14;0.23;;;0.23;;
13481;SDS011;6813;60.352;15.746;2023-03-20T15:23:42;1.03;;;0.33;;
13481;SDS011;6813;60.352;15.746;2023-03-20T15:26:09;0.50;;;0.50;;
13481;SDS011;6813;60.352;15.746;2023-03-20T15:28:39;0.20;;;0.20;;
13481;SDS011;6813;60.352;15.746;2023-03-20T15:31:12;0.30;;;0.30;;
13481;SDS011;6813;60.352;15.746;2023-03-20T15:33:55;0.40;;;0.40;;
13481;SDS011;6813;60.352;15.746;2023-03-20T15:36:23;0.43;;;0.33;;
13481;SDS011;6813;60.352;15.746;2023-03-20T15:38:52;0.70;;;0.63;;
13481;SDS011;6813;60.352;15.746;2023-03-20T15:41:26;0.80;;;0.53;;
13481;SDS011;6813;60.352;15.746;2023-03-20T15:46:39;0.50;;;0.50;;
13481;SDS011;6813;60.352;15.746;2023-03-20T15:49:04;0.90;;;0.57;;
13481;SDS011;6813;60.352;15.746;2023-03-20T15:51:30;1.40;;;0.50;;
13481;SDS011;6813;60.352;15.746;2023-03-20T15:53:59;0.47;;;0.40;;
13481;SDS011;6813;60.352;15.746;2023-03-20T15:56:27;0.40;;;0.40;;
13481;SDS011;6813;60.352;15.746;2023-03-20T15:58:52;0.80;;;0.60;;
13481;SDS011;6813;60.352;15.746;2023-03-20T16:01:23;1.07;;;0.30;;
13481;SDS011;6813;60.352;15.746;2023-03-20T16:03:50;0.40;;;0.40;;
13481;SDS011;6813;60.352;15.746;2023-03-20T16:06:21;0.20;;;0.20;;
13481;SDS011;6813;60.352;15.746;2023-03-20T16:09:00;0.60;;;0.40;;
13481;SDS011;6813;60.352;15.746;2023-03-20T16:11:37;0.20;;;0.20;;
13481;SDS011;6813;60.352;15.746;2023-03-20T16:14:04;0.30;;;0.30;;
13481;SDS011;6813;60.352;15.746;2023-03-20T16:16:34;0.93;;;0.80;;
13481;SDS011;6813;60.352;15.746;2023-03-20T16:19:02;1.00;;;0.90;;
13481;SDS011;6813;60.352;15.746;2023-03-20T16:21:30;0.90;;;0.90;;
13481;SDS011;6813;60.352;15.746;2023-03-20T16:24:03;1.13;;;1.00;;
13481;SDS011;6813;60.352;15.746;2023-03-20T16:26:36;2.03;;;1.03;;
13481;SDS011;6813;60.352;15.746;2023-03-20T16:29:05;1.17;;;0.90;;
13481;SDS011;6813;60.352;15.746;2023-03-20T16:31:32;1.07;;;0.90;;
13481;SDS011;6813;60.352;15.746;2023-03-20T16:34:04;1.00;;;1.00;;
13481;SDS011;6813;60.352;15.746;2023-03-20T16:36:34;0.70;;;0.70;;
13481;SDS011;6813;60.352;15.746;2023-03-20T16:41:35;1.20;;;1.10;;
13481;SDS011;6813;60.352;15.746;2023-03-20T16:44:06;2.20;;;1.53;;
13481;SDS011;6813;60.352;15.746;2023-03-20T16:46:52;1.00;;;0.80;;
13481;SDS011;6813;60.352;15.746;2023-03-20T16:51:55;0.37;;;0.37;;
13481;SDS011;6813;60.352;15.746;2023-03-20T16:54:27;0.20;;;0.20;;
13481;SDS011;6813;60.352;15.746;2023-03-20T16:56:56;0.50;;;0.40;;
13481;SDS011;6813;60.352;15.746;2023-03-20T16:59:23;0.40;;;0.40;;
13481;SDS011;6813;60.352;15.746;2023-03-20T17:01:50;0.40;;;0.40;;
13481;SDS011;6813;60.352;15.746;2023-03-20T17:04:22;0.23;;;0.23;;
13481;SDS011;6813;60.352;15.746;2023-03-20T17:06:57;0.20;;;0.20;;
13481;SDS011;6813;60.352;15.746;2023-03-20T17:09:26;0.47;;;0.47;;
13481;SDS011;6813;60.352;15.746;2023-03-20T17:12:00;0.40;;;0.40;;
13481;SDS011;6813;60.352;15.746;2023-03-20T17:14:27;0.30;;;0.30;;
13481;SDS011;6813;60.352;15.746;2023-03-20T17:16:53;1.53;;;0.23;;
13481;SDS011;6813;60.352;15.746;2023-03-20T17:19:20;0.73;;;0.20;;
13481;SDS011;6813;60.352;15.746;2023-03-20T17:21:46;0.90;;;0.87;;
13481;SDS011;6813;60.352;15.746;2023-03-20T17:24:13;0.30;;;0.30;;
13481;SDS011;6813;60.352;15.746;2023-03-20T17:26:40;0.30;;;0.30;;
13481;SDS011;6813;60.352;15.746;2023-03-20T17:29:11;0.30;;;0.30;;
13481;SDS011;6813;60.352;15.746;2023-03-20T17:31:37;0.47;;;0.47;;
13481;SDS011;6813;60.352;15.746;2023-03-20T17:34:03;0.27;;;0.27;;
13481;SDS011;6813;60.352;15.746;2023-03-20T17:36:30;0.30;;;0.30;;
13481;SDS011;6813;60.352;15.746;2023-03-20T17:38:58;0.20;;;0.20;;
13481;SDS011;6813;60.352;15.746;2023-03-20T17:41:24;0.70;;;0.70;;
13481;SDS011;6813;60.352;15.746;2023-03-20T17:43:51;1.20;;;0.63;;
13481;SDS011;6813;60.352;15.746;2023-03-20T17:46:18;0.40;;;0.40;;
13481;SDS011;6813;60.352;15.746;2023-03-20T17:48:46;5.13;;;3.67;;
13481;SDS011;6813;60.352;15.746;2023-03-20T17:51:13;2.43;;;1.50;;
13481;SDS011;6813;60.352;15.746;2023-03-20T17:53:39;1.70;;;1.20;;